sensor_id;sensor_type;location;lat;lon;timestamp;pressure;altitude;pressure_sealevel;temperature;humidity
76285;BME280;65096;50.998;7.098;2023-03-01T00:01:18;102315.31;;;0.54;41.71
76285;BME280;65096;50.998;7.098;2023-03-01T00:03:45;102316.88;;;0.52;41.50
76285;BME280;65096;50.998;7.098;2023-03-01T00:06:12;102318.19;;;0.47;41.86
76285;BME280;65096;50.998;7.098;2023-03-01T00:08:39;102324.78;;;0.45;40.95
76285;BME280;65096;50.998;7.098;2023-03-01T00:11:10;102326.16;;;0.40;43.17
76285;BME280;65096;50.998;7.098;2023-03-01T00:13:38;102330.84;;;0.36;41.80
76285;BME280;65096;50.998;7.098;2023-03-01T00:16:07;102332.31;;;0.32;41.45
76285;BME280;65096;50.998;7.098;2023-03-01T00:18:34;102322.91;;;0.31;41.37
76285;BME280;65096;50.998;7.098;2023-03-01T00:21:01;102326.13;;;0.29;41.69
76285;BME280;65096;50.998;7.098;2023-03-01T00:23:28;102316.50;;;0.25;41.73
76285;BME280;65096;50.998;7.098;2023-03-01T00:25:55;102322.47;;;0.25;42.08
76285;BME280;65096;50.998;7.098;2023-03-01T00:28:23;102319.06;;;0.25;41.77
76285;BME280;65096;50.998;7.098;2023-03-01T00:30:50;102318.19;;;0.24;41.64
76285;BME280;65096;50.998;7.098;2023-03-01T00:33:17;102310.31;;;0.21;41.46
76285;BME280;65096;50.998;7.098;2023-03-01T00:35:44;102321.38;;;0.22;41.33
76285;BME280;65096;50.998;7.098;2023-03-01T00:38:11;102316.28;;;0.22;41.47
76285;BME280;65096;50.998;7.098;2023-03-01T00:40:38;102313.75;;;0.22;41.75
76285;BME280;65096;50.998;7.098;2023-03-01T00:43:04;102312.75;;;0.20;41.70
76285;BME280;65096;50.998;7.098;2023-03-01T00:45:33;102307.69;;;0.20;42.25
76285;BME280;65096;50.998;7.098;2023-03-01T00:47:59;102311.13;;;0.20;41.61
76285;BME280;65096;50.998;7.098;2023-03-01T00:50:28;102306.72;;;0.18;43.16
76285;BME280;65096;50.998;7.098;2023-03-01T00:52:56;102311.78;;;0.18;42.39
76285;BME280;65096;50.998;7.098;2023-03-01T00:55:23;102313.31;;;0.16;41.54
76285;BME280;65096;50.998;7.098;2023-03-01T00:57:50;102298.75;;;0.13;42.93
76285;BME280;65096;50.998;7.098;2023-03-01T01:00:18;102278.66;;;-0.07;43.03
76285;BME280;65096;50.998;7.098;2023-03-01T01:02:46;102300.84;;;0.07;43.15
76285;BME280;65096;50.998;7.098;2023-03-01T01:05:13;102304.91;;;0.05;42.65
76285;BME280;65096;50.998;7.098;2023-03-01T01:07:40;102303.03;;;0.03;42.38
76285;BME280;65096;50.998;7.098;2023-03-01T01:10:08;102295.84;;;-0.03;45.42
76285;BME280;65096;50.998;7.098;2023-03-01T01:12:38;102290.44;;;-0.07;44.54
76285;BME280;65096;50.998;7.098;2023-03-01T01:15:06;102288.34;;;-0.13;45.03
76285;BME280;65096;50.998;7.098;2023-03-01T01:17:33;102288.78;;;-0.18;43.14
76285;BME280;65096;50.998;7.098;2023-03-01T01:20:01;102279.31;;;-0.21;43.16
76285;BME280;65096;50.998;7.098;2023-03-01T01:22:28;102284.16;;;-0.24;42.88
76285;BME280;65096;50.998;7.098;2023-03-01T01:24:55;102273.78;;;-0.27;42.87
76285;BME280;65096;50.998;7.098;2023-03-01T01:27:21;102275.53;;;-0.26;43.14
76285;BME280;65096;50.998;7.098;2023-03-01T01:29:48;102270.13;;;-0.30;43.49
76285;BME280;65096;50.998;7.098;2023-03-01T01:32:15;102262.44;;;-0.32;44.11
76285;BME280;65096;50.998;7.098;2023-03-01T01:34:41;102267.72;;;-0.29;43.06
76285;BME280;65096;50.998;7.098;2023-03-01T01:37:09;102265.28;;;-0.27;43.05
76285;BME280;65096;50.998;7.098;2023-03-01T01:39:36;102264.28;;;-0.29;42.96
76285;BME280;65096;50.998;7.098;2023-03-01T01:42:03;102255.69;;;-0.31;43.80
76285;BME280;65096;50.998;7.098;2023-03-01T01:44:30;102250.72;;;-0.41;44.08
76285;BME280;65096;50.998;7.098;2023-03-01T01:46:57;102249.28;;;-0.38;44.34
76285;BME280;65096;50.998;7.098;2023-03-01T01:49:32;102243.97;;;-0.41;43.75
76285;BME280;65096;50.998;7.098;2023-03-01T01:52:09;102245.53;;;-0.43;45.16
76285;BME280;65096;50.998;7.098;2023-03-01T01:54:41;102246.72;;;-0.49;43.62
76285;BME280;65096;50.998;7.098;2023-03-01T01:57:14;102235.47;;;-0.53;44.52
76285;BME280;65096;50.998;7.098;2023-03-01T01:59:43;102232.72;;;-0.56;44.09
76285;BME280;65096;50.998;7.098;2023-03-01T02:02:12;102224.22;;;-0.56;44.29
76285;BME280;65096;50.998;7.098;2023-03-01T02:04:39;102219.84;;;-0.59;44.11
76285;BME280;65096;50.998;7.098;2023-03-01T02:07:13;102227.31;;;-0.60;46.19
76285;BME280;65096;50.998;7.098;2023-03-01T02:09:42;102220.91;;;-0.67;44.67
76285;BME280;65096;50.998;7.098;2023-03-01T02:12:12;102224.31;;;-0.66;44.52
76285;BME280;65096;50.998;7.098;2023-03-01T02:14:40;102218.25;;;-0.68;44.32
76285;BME280;65096;50.998;7.098;2023-03-01T02:17:06;102220.69;;;-0.70;44.45
76285;BME280;65096;50.998;7.098;2023-03-01T02:19:42;102220.44;;;-0.73;44.99
76285;BME280;65096;50.998;7.098;2023-03-01T02:22:18;102216.38;;;-0.71;44.68
76285;BME280;65096;50.998;7.098;2023-03-01T02:24:55;102215.47;;;-0.71;45.17
76285;BME280;65096;50.998;7.098;2023-03-01T02:27:30;102220.31;;;-0.74;45.17
76285;BME280;65096;50.998;7.098;2023-03-01T02:30:01;102214.00;;;-0.79;45.26
76285;BME280;65096;50.998;7.098;2023-03-01T02:32:28;102215.91;;;-0.77;44.96
76285;BME280;65096;50.998;7.098;2023-03-01T02:34:55;102223.41;;;-0.78;44.62
76285;BME280;65096;50.998;7.098;2023-03-01T02:37:23;102186.88;;;-1.04;45.13
76285;BME280;65096;50.998;7.098;2023-03-01T02:39:56;102222.81;;;-0.86;45.70
76285;BME280;65096;50.998;7.098;2023-03-01T02:42:26;102218.00;;;-0.83;45.19
76285;BME280;65096;50.998;7.098;2023-03-01T02:44:54;102217.22;;;-0.82;44.93
76285;BME280;65096;50.998;7.098;2023-03-01T02:47:22;102211.03;;;-0.85;45.56
76285;BME280;65096;50.998;7.098;2023-03-01T02:49:49;102218.75;;;-0.84;45.32
76285;BME280;65096;50.998;7.098;2023-03-01T02:52:23;102204.09;;;-0.88;45.25
76285;BME280;65096;50.998;7.098;2023-03-01T02:54:58;102204.31;;;-0.85;45.33
76285;BME280;65096;50.998;7.098;2023-03-01T02:57:26;102203.53;;;-0.84;45.50
76285;BME280;65096;50.998;7.098;2023-03-01T02:59:54;102205.72;;;-0.88;46.36
76285;BME280;65096;50.998;7.098;2023-03-01T03:02:24;102199.25;;;-0.85;45.80
76285;BME280;65096;50.998;7.098;2023-03-01T03:05:05;102196.50;;;-0.88;46.18
76285;BME280;65096;50.998;7.098;2023-03-01T03:07:33;102193.84;;;-0.89;45.81
76285;BME280;65096;50.998;7.098;2023-03-01T03:10:01;102195.28;;;-0.93;46.88
76285;BME280;65096;50.998;7.098;2023-03-01T03:12:28;102182.84;;;-0.90;46.28
76285;BME280;65096;50.998;7.098;2023-03-01T03:14:54;102180.19;;;-0.92;46.94
76285;BME280;65096;50.998;7.098;2023-03-01T03:17:23;102181.50;;;-0.97;46.11
76285;BME280;65096;50.998;7.098;2023-03-01T03:19:50;102185.03;;;-0.95;46.25
76285;BME280;65096;50.998;7.098;2023-03-01T03:22:16;102176.75;;;-0.92;46.13
76285;BME280;65096;50.998;7.098;2023-03-01T03:24:43;102174.00;;;-0.95;45.90
76285;BME280;65096;50.998;7.098;2023-03-01T03:27:10;102177.31;;;-0.96;45.64
76285;BME280;65096;50.998;7.098;2023-03-01T03:29:37;102172.38;;;-0.95;46.01
76285;BME280;65096;50.998;7.098;2023-03-01T03:32:03;102166.31;;;-0.97;47.79
76285;BME280;65096;50.998;7.098;2023-03-01T03:34:31;102173.91;;;-0.97;45.95
76285;BME280;65096;50.998;7.098;2023-03-01T03:36:58;102183.25;;;-0.96;46.88
76285;BME280;65096;50.998;7.098;2023-03-01T03:39:26;102183.00;;;-0.99;47.12
76285;BME280;65096;50.998;7.098;2023-03-01T03:41:54;102182.16;;;-0.99;46.94
76285;BME280;65096;50.998;7.098;2023-03-01T03:44:21;102178.19;;;-0.96;46.29
76285;BME280;65096;50.998;7.098;2023-03-01T03:46:48;102172.25;;;-0.96;46.21
76285;BME280;65096;50.998;7.098;2023-03-01T03:49:14;102172.25;;;-0.96;46.36
76285;BME280;65096;50.998;7.098;2023-03-01T03:51:45;102170.59;;;-0.96;47.72
76285;BME280;65096;50.998;7.098;2023-03-01T03:54:12;102174.78;;;-0.96;46.86
76285;BME280;65096;50.998;7.098;2023-03-01T03:56:38;102169.72;;;-0.96;46.24
76285;BME280;65096;50.998;7.098;2023-03-01T03:59:05;102164.53;;;-0.98;46.04
76285;BME280;65096;50.998;7.098;2023-03-01T04:01:31;102161.34;;;-0.95;48.95
76285;BME280;65096;50.998;7.098;2023-03-01T04:03:58;102156.06;;;-0.98;46.28
76285;BME280;65096;50.998;7.098;2023-03-01T04:06:30;102151.09;;;-0.97;46.98
76285;BME280;65096;50.998;7.098;2023-03-01T04:08:58;102155.72;;;-1.03;46.78
76285;BME280;65096;50.998;7.098;2023-03-01T04:11:27;102151.44;;;-1.04;47.25
76285;BME280;65096;50.998;7.098;2023-03-01T04:13:56;102145.72;;;-1.01;46.57
76285;BME280;65096;50.998;7.098;2023-03-01T04:16:23;102141.31;;;-1.04;46.75
76285;BME280;65096;50.998;7.098;2023-03-01T04:18:50;102149.81;;;-1.25;49.93
76285;BME280;65096;50.998;7.098;2023-03-01T04:21:17;102149.69;;;-1.26;48.74
76285;BME280;65096;50.998;7.098;2023-03-01T04:23:45;102148.13;;;-1.24;49.16
76285;BME280;65096;50.998;7.098;2023-03-01T04:26:13;102142.97;;;-1.26;47.80
76285;BME280;65096;50.998;7.098;2023-03-01T04:28:41;102138.44;;;-1.30;50.35
76285;BME280;65096;50.998;7.098;2023-03-01T04:31:12;102146.16;;;-1.28;47.90
76285;BME280;65096;50.998;7.098;2023-03-01T04:33:44;102145.09;;;-1.20;48.54
76285;BME280;65096;50.998;7.098;2023-03-01T04:36:12;102143.44;;;-1.20;48.70
76285;BME280;65096;50.998;7.098;2023-03-01T04:38:40;102146.44;;;-1.14;47.22
76285;BME280;65096;50.998;7.098;2023-03-01T04:41:08;102150.50;;;-1.16;47.47
76285;BME280;65096;50.998;7.098;2023-03-01T04:43:36;102142.69;;;-1.19;48.26
76285;BME280;65096;50.998;7.098;2023-03-01T04:46:05;102137.50;;;-1.20;48.14
76285;BME280;65096;50.998;7.098;2023-03-01T04:48:33;102144.44;;;-1.18;47.57
76285;BME280;65096;50.998;7.098;2023-03-01T04:51:00;102145.84;;;-1.21;48.46
76285;BME280;65096;50.998;7.098;2023-03-01T04:53:28;102134.97;;;-1.20;48.76
76285;BME280;65096;50.998;7.098;2023-03-01T04:55:55;102139.69;;;-1.25;48.37
76285;BME280;65096;50.998;7.098;2023-03-01T04:58:22;102114.38;;;-1.46;49.46
76285;BME280;65096;50.998;7.098;2023-03-01T05:00:51;102133.09;;;-1.44;50.05
76285;BME280;65096;50.998;7.098;2023-03-01T05:03:18;102134.84;;;-1.43;48.82
76285;BME280;65096;50.998;7.098;2023-03-01T05:05:46;102135.78;;;-1.53;50.05
76285;BME280;65096;50.998;7.098;2023-03-01T05:08:14;102133.75;;;-1.68;50.29
76285;BME280;65096;50.998;7.098;2023-03-01T05:10:44;102137.47;;;-1.53;48.76
76285;BME280;65096;50.998;7.098;2023-03-01T05:13:12;102131.59;;;-1.42;49.18
76285;BME280;65096;50.998;7.098;2023-03-01T05:15:40;102128.50;;;-1.38;48.74
76285;BME280;65096;50.998;7.098;2023-03-01T05:18:08;102138.97;;;-1.34;49.49
76285;BME280;65096;50.998;7.098;2023-03-01T05:20:37;102137.00;;;-1.38;48.43
76285;BME280;65096;50.998;7.098;2023-03-01T05:23:04;102132.44;;;-1.42;49.14
76285;BME280;65096;50.998;7.098;2023-03-01T05:25:33;102134.69;;;-1.35;48.17
76285;BME280;65096;50.998;7.098;2023-03-01T05:28:00;102134.56;;;-1.36;48.95
76285;BME280;65096;50.998;7.098;2023-03-01T05:30:30;102137.31;;;-1.33;48.71
76285;BME280;65096;50.998;7.098;2023-03-01T05:32:58;102134.13;;;-1.31;48.59
76285;BME280;65096;50.998;7.098;2023-03-01T05:35:26;102131.25;;;-1.35;48.73
76285;BME280;65096;50.998;7.098;2023-03-01T05:37:53;102135.81;;;-1.31;48.51
76285;BME280;65096;50.998;7.098;2023-03-01T05:40:21;102129.06;;;-1.31;48.90
76285;BME280;65096;50.998;7.098;2023-03-01T05:42:52;102134.25;;;-1.29;48.86
76285;BME280;65096;50.998;7.098;2023-03-01T05:45:20;102130.84;;;-1.30;49.10
76285;BME280;65096;50.998;7.098;2023-03-01T05:47:48;102133.78;;;-1.35;49.16
76285;BME280;65096;50.998;7.098;2023-03-01T05:50:16;102132.38;;;-1.32;48.76
76285;BME280;65096;50.998;7.098;2023-03-01T05:52:47;102122.16;;;-1.33;49.17
76285;BME280;65096;50.998;7.098;2023-03-01T05:55:15;102119.63;;;-1.33;49.64
76285;BME280;65096;50.998;7.098;2023-03-01T05:57:42;102116.88;;;-1.36;48.93
76285;BME280;65096;50.998;7.098;2023-03-01T06:00:11;102104.22;;;-1.36;48.86
76285;BME280;65096;50.998;7.098;2023-03-01T06:02:38;102098.16;;;-1.38;49.78
76285;BME280;65096;50.998;7.098;2023-03-01T06:05:06;102085.72;;;-1.35;48.90
76285;BME280;65096;50.998;7.098;2023-03-01T06:07:33;102083.63;;;-1.41;49.02
76285;BME280;65096;50.998;7.098;2023-03-01T06:10:02;102073.50;;;-1.41;49.11
76285;BME280;65096;50.998;7.098;2023-03-01T06:12:30;102077.78;;;-1.40;48.87
76285;BME280;65096;50.998;7.098;2023-03-01T06:14:58;102092.19;;;-1.39;50.38
76285;BME280;65096;50.998;7.098;2023-03-01T06:17:25;102084.88;;;-1.36;48.94
76285;BME280;65096;50.998;7.098;2023-03-01T06:19:52;102089.81;;;-1.37;48.57
76285;BME280;65096;50.998;7.098;2023-03-01T06:22:19;102093.31;;;-1.35;49.62
76285;BME280;65096;50.998;7.098;2023-03-01T06:24:45;102086.19;;;-1.29;49.73
76285;BME280;65096;50.998;7.098;2023-03-01T06:27:13;102089.03;;;-1.36;49.04
76285;BME280;65096;50.998;7.098;2023-03-01T06:29:40;102089.16;;;-1.35;48.38
76285;BME280;65096;50.998;7.098;2023-03-01T06:32:07;102093.19;;;-1.37;48.96
76285;BME280;65096;50.998;7.098;2023-03-01T06:34:34;102092.78;;;-1.31;48.66
76285;BME280;65096;50.998;7.098;2023-03-01T06:37:00;102087.97;;;-1.28;48.61
76285;BME280;65096;50.998;7.098;2023-03-01T06:39:30;102085.44;;;-1.28;48.59
76285;BME280;65096;50.998;7.098;2023-03-01T06:41:57;102089.59;;;-1.29;49.01
76285;BME280;65096;50.998;7.098;2023-03-01T06:44:25;102087.72;;;-1.31;49.17
76285;BME280;65096;50.998;7.098;2023-03-01T06:46:52;102088.06;;;-1.27;48.32
76285;BME280;65096;50.998;7.098;2023-03-01T06:49:18;102091.59;;;-1.25;48.23
76285;BME280;65096;50.998;7.098;2023-03-01T06:51:45;102087.06;;;-1.29;49.12
76285;BME280;65096;50.998;7.098;2023-03-01T06:54:12;102083.91;;;-1.26;48.96
76285;BME280;65096;50.998;7.098;2023-03-01T06:56:39;102076.66;;;-1.22;48.57
76285;BME280;65096;50.998;7.098;2023-03-01T06:59:05;102090.31;;;-1.20;48.77
76285;BME280;65096;50.998;7.098;2023-03-01T07:01:33;102090.94;;;-1.22;48.93
76285;BME280;65096;50.998;7.098;2023-03-01T07:04:00;102103.81;;;-1.19;48.81
76285;BME280;65096;50.998;7.098;2023-03-01T07:06:27;102087.34;;;-1.14;49.11
76285;BME280;65096;50.998;7.098;2023-03-01T07:08:53;102084.81;;;-1.14;48.67
76285;BME280;65096;50.998;7.098;2023-03-01T07:11:20;102087.66;;;-1.10;49.85
76285;BME280;65096;50.998;7.098;2023-03-01T07:13:47;102085.91;;;-1.11;48.51
76285;BME280;65096;50.998;7.098;2023-03-01T07:16:13;102082.41;;;-1.01;48.81
76285;BME280;65096;50.998;7.098;2023-03-01T07:18:42;102083.75;;;-0.95;49.41
76285;BME280;65096;50.998;7.098;2023-03-01T07:21:11;102080.03;;;-0.88;48.38
76285;BME280;65096;50.998;7.098;2023-03-01T07:23:38;102086.53;;;-0.80;48.97
76285;BME280;65096;50.998;7.098;2023-03-01T07:26:05;102071.91;;;-0.72;50.34
76285;BME280;65096;50.998;7.098;2023-03-01T07:28:32;102074.22;;;-0.64;49.01
76285;BME280;65096;50.998;7.098;2023-03-01T07:31:02;102073.25;;;-0.54;48.67
76285;BME280;65096;50.998;7.098;2023-03-01T07:33:28;102076.75;;;-0.41;48.19
76285;BME280;65096;50.998;7.098;2023-03-01T07:35:57;102070.13;;;-0.27;48.25
76285;BME280;65096;50.998;7.098;2023-03-01T07:38:24;102075.75;;;-0.20;48.07
76285;BME280;65096;50.998;7.098;2023-03-01T07:40:51;102070.19;;;-0.03;48.03
76285;BME280;65096;50.998;7.098;2023-03-01T07:43:18;102076.25;;;0.11;47.80
76285;BME280;65096;50.998;7.098;2023-03-01T07:45:45;102080.50;;;0.23;47.25
76285;BME280;65096;50.998;7.098;2023-03-01T07:48:12;102083.09;;;0.36;47.62
76285;BME280;65096;50.998;7.098;2023-03-01T07:50:39;102069.25;;;0.56;46.97
76285;BME280;65096;50.998;7.098;2023-03-01T07:53:08;102069.41;;;0.71;46.56
76285;BME280;65096;50.998;7.098;2023-03-01T07:55:35;102056.53;;;0.81;46.36
76285;BME280;65096;50.998;7.098;2023-03-01T07:58:02;102069.56;;;0.98;46.18
76285;BME280;65096;50.998;7.098;2023-03-01T08:00:28;102067.06;;;1.11;46.09
76285;BME280;65096;50.998;7.098;2023-03-01T08:02:58;102065.53;;;1.26;45.86
76285;BME280;65096;50.998;7.098;2023-03-01T08:05:25;102061.44;;;1.41;45.53
76285;BME280;65096;50.998;7.098;2023-03-01T08:07:52;102058.88;;;1.54;45.33
76285;BME280;65096;50.998;7.098;2023-03-01T08:10:20;102060.75;;;1.83;45.06
76285;BME280;65096;50.998;7.098;2023-03-01T08:12:47;102053.09;;;1.96;44.65
76285;BME280;65096;50.998;7.098;2023-03-01T08:15:14;102057.94;;;2.19;43.89
76285;BME280;65096;50.998;7.098;2023-03-01T08:17:44;102056.75;;;2.27;43.87
76285;BME280;65096;50.998;7.098;2023-03-01T08:20:11;102040.94;;;2.33;43.32
76285;BME280;65096;50.998;7.098;2023-03-01T08:22:38;102064.59;;;2.72;43.21
76285;BME280;65096;50.998;7.098;2023-03-01T08:25:05;102059.16;;;2.95;42.87
76285;BME280;65096;50.998;7.098;2023-03-01T08:27:33;102051.97;;;3.17;41.62
76285;BME280;65096;50.998;7.098;2023-03-01T08:30:00;102060.97;;;3.56;41.42
76285;BME280;65096;50.998;7.098;2023-03-01T08:32:26;102055.25;;;3.75;40.17
76285;BME280;65096;50.998;7.098;2023-03-01T08:34:53;102060.88;;;4.00;40.16
76285;BME280;65096;50.998;7.098;2023-03-01T08:37:20;102055.41;;;4.24;39.30
76285;BME280;65096;50.998;7.098;2023-03-01T08:39:46;102057.22;;;4.41;39.17
76285;BME280;65096;50.998;7.098;2023-03-01T08:42:13;102052.66;;;4.52;37.25
76285;BME280;65096;50.998;7.098;2023-03-01T08:44:41;102058.38;;;4.80;39.02
76285;BME280;65096;50.998;7.098;2023-03-01T08:47:08;102053.84;;;5.08;37.41
76285;BME280;65096;50.998;7.098;2023-03-01T08:49:35;102058.41;;;5.31;38.94
76285;BME280;65096;50.998;7.098;2023-03-01T08:52:02;102057.25;;;5.42;38.90
76285;BME280;65096;50.998;7.098;2023-03-01T08:54:29;102052.78;;;5.91;36.34
76285;BME280;65096;50.998;7.098;2023-03-01T08:56:55;102057.66;;;6.04;36.71
76285;BME280;65096;50.998;7.098;2023-03-01T08:59:25;102052.13;;;6.14;36.38
76285;BME280;65096;50.998;7.098;2023-03-01T09:01:53;102055.22;;;6.24;37.17
76285;BME280;65096;50.998;7.098;2023-03-01T09:04:19;102057.25;;;6.51;35.89
76285;BME280;65096;50.998;7.098;2023-03-01T09:06:46;102040.25;;;6.53;35.94
76285;BME280;65096;50.998;7.098;2023-03-01T09:09:14;102048.09;;;6.56;34.74
76285;BME280;65096;50.998;7.098;2023-03-01T09:11:42;102035.06;;;6.70;35.54
76285;BME280;65096;50.998;7.098;2023-03-01T09:14:09;102045.00;;;6.63;33.81
76285;BME280;65096;50.998;7.098;2023-03-01T09:16:36;102046.66;;;7.02;33.35
76285;BME280;65096;50.998;7.098;2023-03-01T09:19:04;102050.25;;;7.26;34.06
76285;BME280;65096;50.998;7.098;2023-03-01T09:21:31;102043.22;;;7.63;34.24
76285;BME280;65096;50.998;7.098;2023-03-01T09:23:58;102039.03;;;8.09;35.53
76285;BME280;65096;50.998;7.098;2023-03-01T09:26:25;102010.16;;;8.38;32.43
76285;BME280;65096;50.998;7.098;2023-03-01T09:28:53;102032.75;;;8.23;30.74
76285;BME280;65096;50.998;7.098;2023-03-01T09:31:21;102020.88;;;8.50;30.52
76285;BME280;65096;50.998;7.098;2023-03-01T09:33:52;102029.44;;;8.99;32.14
76285;BME280;65096;50.998;7.098;2023-03-01T09:36:22;102026.44;;;8.87;29.76
76285;BME280;65096;50.998;7.098;2023-03-01T09:38:51;102020.09;;;9.01;31.89
76285;BME280;65096;50.998;7.098;2023-03-01T09:41:46;102019.75;;;9.43;30.03
76285;BME280;65096;50.998;7.098;2023-03-01T09:44:32;102024.78;;;9.66;28.20
76285;BME280;65096;50.998;7.098;2023-03-01T09:47:01;102021.28;;;9.91;28.01
76285;BME280;65096;50.998;7.098;2023-03-01T09:49:29;102011.84;;;10.21;31.29
76285;BME280;65096;50.998;7.098;2023-03-01T09:52:01;102006.44;;;10.41;27.63
76285;BME280;65096;50.998;7.098;2023-03-01T09:54:30;102015.03;;;10.73;30.82
76285;BME280;65096;50.998;7.098;2023-03-01T09:57:06;102001.03;;;10.96;28.28
76285;BME280;65096;50.998;7.098;2023-03-01T09:59:45;102005.59;;;11.06;28.63
76285;BME280;65096;50.998;7.098;2023-03-01T10:02:26;102001.47;;;11.13;26.38
76285;BME280;65096;50.998;7.098;2023-03-01T10:05:00;102012.88;;;11.22;27.82
76285;BME280;65096;50.998;7.098;2023-03-01T10:07:42;101998.88;;;11.48;28.29
76285;BME280;65096;50.998;7.098;2023-03-01T10:10:21;101999.28;;;11.65;27.26
76285;BME280;65096;50.998;7.098;2023-03-01T10:12:50;102005.13;;;11.58;27.34
76285;BME280;65096;50.998;7.098;2023-03-01T10:15:22;102000.88;;;11.60;26.81
76285;BME280;65096;50.998;7.098;2023-03-01T10:17:54;102001.31;;;11.78;27.98
76285;BME280;65096;50.998;7.098;2023-03-01T10:20:25;101990.03;;;11.76;27.71
76285;BME280;65096;50.998;7.098;2023-03-01T10:22:53;101990.56;;;12.00;27.85
76285;BME280;65096;50.998;7.098;2023-03-01T10:25:42;101979.44;;;12.02;26.46
76285;BME280;65096;50.998;7.098;2023-03-01T10:28:16;101976.69;;;11.96;27.42
76285;BME280;65096;50.998;7.098;2023-03-01T10:30:43;101973.53;;;12.10;26.25
76285;BME280;65096;50.998;7.098;2023-03-01T10:33:16;101967.28;;;12.42;26.44
76285;BME280;65096;50.998;7.098;2023-03-01T10:35:44;101961.41;;;12.50;26.15
76285;BME280;65096;50.998;7.098;2023-03-01T10:38:14;101962.09;;;12.42;25.89
76285;BME280;65096;50.998;7.098;2023-03-01T10:40:54;101963.59;;;12.75;26.71
76285;BME280;65096;50.998;7.098;2023-03-01T10:43:25;101963.84;;;12.87;25.18
76285;BME280;65096;50.998;7.098;2023-03-01T10:45:53;101959.13;;;12.67;24.70
76285;BME280;65096;50.998;7.098;2023-03-01T10:48:22;101951.16;;;12.55;24.47
76285;BME280;65096;50.998;7.098;2023-03-01T10:51:05;101949.19;;;12.43;25.33
76285;BME280;65096;50.998;7.098;2023-03-01T10:53:35;101941.00;;;12.67;24.42
76285;BME280;65096;50.998;7.098;2023-03-01T10:56:06;101939.03;;;13.03;23.16
76285;BME280;65096;50.998;7.098;2023-03-01T10:58:34;101941.16;;;13.28;23.48
76285;BME280;65096;50.998;7.098;2023-03-01T11:01:03;101923.44;;;13.57;24.59
76285;BME280;65096;50.998;7.098;2023-03-01T11:03:31;101917.28;;;14.17;24.31
76285;BME280;65096;50.998;7.098;2023-03-01T11:06:06;101916.28;;;14.05;22.06
76285;BME280;65096;50.998;7.098;2023-03-01T11:08:48;101907.03;;;14.28;22.17
76285;BME280;65096;50.998;7.098;2023-03-01T11:11:28;101908.56;;;14.12;23.48
76285;BME280;65096;50.998;7.098;2023-03-01T11:13:58;101889.72;;;14.28;23.27
76285;BME280;65096;50.998;7.098;2023-03-01T11:16:28;101880.44;;;14.48;24.57
76285;BME280;65096;50.998;7.098;2023-03-01T11:18:57;101889.88;;;14.43;24.05
76285;BME280;65096;50.998;7.098;2023-03-01T11:21:26;101883.09;;;14.54;23.49
76285;BME280;65096;50.998;7.098;2023-03-01T11:23:57;101881.03;;;14.23;22.26
76285;BME280;65096;50.998;7.098;2023-03-01T11:26:28;101886.00;;;14.02;23.29
76285;BME280;65096;50.998;7.098;2023-03-01T11:29:02;101879.88;;;13.94;22.15
76285;BME280;65096;50.998;7.098;2023-03-01T11:31:31;101872.19;;;14.03;23.63
76285;BME280;65096;50.998;7.098;2023-03-01T11:34:04;101878.88;;;13.82;23.02
76285;BME280;65096;50.998;7.098;2023-03-01T11:36:35;101864.16;;;13.82;23.74
76285;BME280;65096;50.998;7.098;2023-03-01T11:39:14;101860.91;;;14.01;23.75
76285;BME280;65096;50.998;7.098;2023-03-01T11:41:48;101863.22;;;13.77;21.72
76285;BME280;65096;50.998;7.098;2023-03-01T11:44:21;101858.78;;;13.64;21.88
76285;BME280;65096;50.998;7.098;2023-03-01T11:47:05;101854.72;;;13.89;22.45
76285;BME280;65096;50.998;7.098;2023-03-01T11:49:50;101857.94;;;13.67;22.39
76285;BME280;65096;50.998;7.098;2023-03-01T11:52:30;101848.34;;;13.61;22.83
76285;BME280;65096;50.998;7.098;2023-03-01T11:55:16;101848.91;;;13.40;22.51
76285;BME280;65096;50.998;7.098;2023-03-01T11:58:00;101838.13;;;13.07;22.97
76285;BME280;65096;50.998;7.098;2023-03-01T12:00:48;101830.34;;;13.06;24.20
76285;BME280;65096;50.998;7.098;2023-03-01T12:03:28;101833.78;;;12.53;23.76
76285;BME280;65096;50.998;7.098;2023-03-01T12:06:09;101822.94;;;12.73;23.65
76285;BME280;65096;50.998;7.098;2023-03-01T12:08:42;101808.03;;;12.57;24.74
76285;BME280;65096;50.998;7.098;2023-03-01T12:11:19;101822.75;;;12.60;24.12
76285;BME280;65096;50.998;7.098;2023-03-01T12:17:00;101819.31;;;12.12;23.70
76285;BME280;65096;50.998;7.098;2023-03-01T12:19:36;101825.94;;;11.97;24.29
76285;BME280;65096;50.998;7.098;2023-03-01T12:22:17;101825.31;;;11.66;23.73
76285;BME280;65096;50.998;7.098;2023-03-01T12:24:59;101809.03;;;11.68;23.73
76285;BME280;65096;50.998;7.098;2023-03-01T12:27:59;101813.16;;;11.60;24.09
76285;BME280;65096;50.998;7.098;2023-03-01T12:30:37;101798.31;;;11.50;24.36
76285;BME280;65096;50.998;7.098;2023-03-01T12:33:22;101796.44;;;11.43;25.12
76285;BME280;65096;50.998;7.098;2023-03-01T12:36:13;101791.22;;;11.42;24.75
76285;BME280;65096;50.998;7.098;2023-03-01T12:38:49;101784.38;;;11.44;23.96
76285;BME280;65096;50.998;7.098;2023-03-01T12:41:40;101784.41;;;11.45;23.92
76285;BME280;65096;50.998;7.098;2023-03-01T12:44:25;101789.50;;;11.41;25.14
76285;BME280;65096;50.998;7.098;2023-03-01T12:47:05;101782.16;;;11.59;24.47
76285;BME280;65096;50.998;7.098;2023-03-01T12:49:37;101772.03;;;11.71;24.34
76285;BME280;65096;50.998;7.098;2023-03-01T12:52:11;101780.53;;;11.64;23.49
76285;BME280;65096;50.998;7.098;2023-03-01T12:54:41;101754.16;;;11.81;24.47
76285;BME280;65096;50.998;7.098;2023-03-01T12:57:13;101765.63;;;11.97;25.27
76285;BME280;65096;50.998;7.098;2023-03-01T12:59:50;101764.97;;;12.09;24.52
76285;BME280;65096;50.998;7.098;2023-03-01T13:02:22;101757.47;;;12.27;24.73
76285;BME280;65096;50.998;7.098;2023-03-01T13:04:57;101757.38;;;12.21;25.04
76285;BME280;65096;50.998;7.098;2023-03-01T13:07:30;101749.06;;;12.40;24.76
76285;BME280;65096;50.998;7.098;2023-03-01T13:10:11;101745.59;;;12.36;24.86